Time;durP1;ratioP1;P1;durP2;ratioP2;P2;SDS_P1;SDS_P2;PMS_P1;PMS_P2;Temp;Humidity;BMP_temperature;BMP_pressure;BME280_temperature;BME280_humidity;BME280_pressure;Samples;Min_cycle;Max_cycle;Signal;HPM_P1;HPM_P2
2021/12/21 00:00:00;;;;;;;12.63;5.30;;;;;;;-0.68;81.32;101496.78;1763880;81;20992;-76
2021/12/21 00:02:27;;;;;;;12.70;5.43;;;;;;;-0.67;81.37;101493.79;1763852;81;21489;-74
2021/12/21 00:04:54;;;;;;;13.93;5.77;;;;;;;-0.71;81.31;101498.00;1763732;81;21024;-74
2021/12/21 00:07:21;;;;;;;18.10;6.53;;;;;;;-0.72;81.37;101498.84;1764020;81;21461;-75
2021/12/21 00:09:48;;;;;;;14.83;5.43;;;;;;;-0.72;81.35;101500.52;1763599;81;21043;-76
2021/12/21 00:12:17;;;;;;;10.97;4.80;;;;;;;-0.74;81.35;101496.62;1763964;81;21003;-74
2021/12/21 00:14:58;;;;;;;11.80;4.70;;;;;;;-0.74;81.34;101499.62;1763783;81;21317;-76
2021/12/21 00:17:41;;;;;;;13.60;6.10;;;;;;;-0.74;81.34;101499.20;1761287;81;21011;-75
2021/12/21 00:20:04;;;;;;;13.93;5.27;;;;;;;-0.75;81.37;101500.05;1759327;81;21017;-74
2021/12/21 00:25:01;;;;;;;13.63;5.90;;;;;;;-0.68;81.46;101502.36;1763865;81;21015;-75
2021/12/21 00:27:28;;;;;;;12.97;6.37;;;;;;;-0.67;81.38;101506.66;1763764;81;21079;-74
2021/12/21 00:29:55;;;;;;;11.23;5.53;;;;;;;-0.70;81.33;101503.59;1763760;81;21023;-74
2021/12/21 00:32:23;;;;;;;10.60;5.20;;;;;;;-0.73;81.25;101502.22;1764133;81;21008;-77
2021/12/21 00:34:50;;;;;;;11.10;5.30;;;;;;;-0.73;81.13;101507.38;1763739;81;21061;-75
2021/12/21 00:37:18;;;;;;;8.77;4.77;;;;;;;-0.74;81.17;101509.92;1763716;81;21023;-74
2021/12/21 00:39:45;;;;;;;12.60;6.13;;;;;;;-0.75;81.15;101506.88;1763725;81;21129;-75
2021/12/21 00:42:13;;;;;;;11.00;4.63;;;;;;;-0.78;81.14;101514.09;1763676;81;21000;-74
2021/12/21 00:44:40;;;;;;;9.60;4.93;;;;;;;-0.77;81.09;101513.28;1763791;81;20999;-77
2021/12/21 00:47:07;;;;;;;9.03;4.47;;;;;;;-0.76;81.13;101516.73;1763682;81;21031;-76
2021/12/21 00:49:36;;;;;;;9.53;3.97;;;;;;;-0.75;81.08;101521.03;1763466;81;21035;-74
2021/12/21 00:52:03;;;;;;;7.33;3.47;;;;;;;-0.75;81.18;101523.22;1739433;81;21157;-74
2021/12/21 00:54:30;;;;;;;8.53;3.87;;;;;;;-0.72;81.11;101526.26;1750750;81;21016;-75
2021/12/21 00:56:58;;;;;;;9.33;4.00;;;;;;;-0.70;81.13;101523.32;1763814;81;21474;-74
2021/12/21 00:59:25;;;;;;;7.70;3.93;;;;;;;-0.65;81.18;101532.05;1764018;81;21449;-74
2021/12/21 01:01:52;;;;;;;8.80;3.73;;;;;;;-0.62;81.28;101530.84;1763754;81;21347;-74
2021/12/21 01:04:24;;;;;;;10.20;4.20;;;;;;;-0.56;81.26;101531.41;1763943;81;21564;-75
2021/12/21 01:07:37;;;;;;;14.00;4.50;;;;;;;-0.57;81.05;101524.53;1763063;81;21607;-75
2021/12/21 01:12:07;;;;;;;9.90;4.07;;;;;;;-0.60;80.88;101524.45;1763740;81;21036;-74
2021/12/21 01:17:17;;;;;;;9.63;3.95;;;;;;;-0.58;81.00;101522.77;1763782;81;21151;-74
2021/12/21 01:19:51;;;;;;;9.23;4.57;;;;;;;-0.55;80.93;101523.74;1762657;81;21520;-75
2021/12/21 01:24:56;;;;;;;11.93;4.47;;;;;;;-0.51;80.80;101518.25;1763963;81;20986;-74
2021/12/21 01:27:27;;;;;;;8.93;4.00;;;;;;;-0.52;80.66;101526.81;1756908;81;21000;-75
2021/12/21 01:29:52;;;;;;;11.40;4.80;;;;;;;-0.53;80.58;101521.19;1754415;81;21142;-74
2021/12/21 01:32:59;;;;;;;8.30;3.57;;;;;;;-0.56;80.47;101516.83;1755066;81;21005;-74
2021/12/21 01:34:53;;;;;;;7.20;3.30;;;;;;;-0.56;80.58;101515.96;1727163;81;20996;-76
2021/12/21 01:37:22;;;;;;;8.70;3.17;;;;;;;-0.51;80.62;101519.53;1755698;81;21485;-75
2021/12/21 01:50:13;;;;;;;7.13;3.33;;;;;;;-0.46;80.71;101514.09;1757362;81;21023;-75
2021/12/21 01:52:40;;;;;;;8.93;3.47;;;;;;;-0.41;80.63;101515.09;1757579;81;21060;-75
2021/12/21 01:55:07;;;;;;;8.17;3.37;;;;;;;-0.39;80.82;101517.27;1757494;81;21784;-75
2021/12/21 01:57:35;;;;;;;6.87;3.40;;;;;;;-0.36;80.75;101514.80;1757395;81;21000;-75
2021/12/21 02:00:05;;;;;;;6.30;3.43;;;;;;;-0.34;80.80;101507.95;1757196;81;21402;-77
2021/12/21 02:02:33;;;;;;;8.57;3.40;;;;;;;-0.26;81.02;101503.00;1757469;81;20907;-75
2021/12/21 02:05:00;;;;;;;6.90;3.37;;;;;;;-0.20;81.16;101504.43;1757195;81;21415;-75
2021/12/21 02:07:27;;;;;;;9.63;3.70;;;;;;;-0.13;80.92;101505.05;1757634;81;21125;-75
2021/12/21 02:09:54;;;;;;;11.50;4.57;;;;;;;-0.11;80.96;101503.78;1757123;81;21509;-74
2021/12/21 02:12:22;;;;;;;8.97;3.60;;;;;;;-0.08;80.88;101503.45;1757457;81;21497;-74
2021/12/21 02:14:57;;;;;;;11.30;3.63;;;;;;;-0.06;80.74;101502.19;1757248;81;21498;-75
2021/12/21 02:18:06;;;;;;;7.10;3.63;;;;;;;-0.06;80.48;101495.75;1757539;81;20965;-74
2021/12/21 02:20:27;;;;;;;10.30;3.47;;;;;;;-0.07;80.48;101500.03;1753434;81;21227;-74
2021/12/21 02:23:04;;;;;;;7.87;3.40;;;;;;;-0.08;80.33;101494.86;1755276;81;21036;-75
2021/12/21 02:30:50;;;;;;;9.90;4.20;;;;;;;0.01;80.62;101486.05;1757231;81;21015;-75
2021/12/21 02:33:16;;;;;;;7.93;3.43;;;;;;;-0.02;80.28;101482.98;1757319;81;21931;-75
2021/12/21 02:35:43;;;;;;;8.33;4.30;;;;;;;-0.01;80.13;101486.00;1757006;81;21087;-75
2021/12/21 02:38:11;;;;;;;12.30;3.93;;;;;;;-0.05;80.00;101482.91;1757519;81;21038;-74
2021/12/21 02:40:39;;;;;;;10.07;3.40;;;;;;;-0.07;80.00;101481.13;1757260;81;21062;-76
2021/12/21 02:43:09;;;;;;;6.33;3.00;;;;;;;-0.08;79.91;101484.13;1757324;81;21572;-75
2021/12/21 02:45:38;;;;;;;10.25;3.33;;;;;;;-0.11;79.98;101483.16;1757295;81;21130;-75
2021/12/21 02:48:06;;;;;;;5.73;3.20;;;;;;;-0.12;79.93;101477.56;1757354;81;21074;-74
2021/12/21 02:50:35;;;;;;;10.10;3.57;;;;;;;-0.15;80.09;101482.23;1747446;81;21130;-75
2021/12/21 02:53:04;;;;;;;8.77;3.63;;;;;;;-0.13;80.16;101475.41;1736396;82;21050;-76
2021/12/21 02:55:31;;;;;;;8.47;3.13;;;;;;;-0.14;80.21;101474.97;1736184;82;21480;-75
2021/12/21 02:57:59;;;;;;;7.50;2.93;;;;;;;-0.13;80.15;101472.83;1736178;82;21207;-74
2021/12/21 03:00:29;;;;;;;8.90;3.17;;;;;;;-0.15;80.19;101472.34;1736315;82;20965;-76
2021/12/21 03:02:56;;;;;;;6.55;2.67;;;;;;;-0.12;80.40;101468.13;1736325;82;21003;-76
2021/12/21 03:05:23;;;;;;;8.47;3.13;;;;;;;-0.12;80.29;101461.68;1736446;82;21048;-75
2021/12/21 03:10:36;;;;;;;10.03;4.10;;;;;;;-0.12;80.43;101462.10;1736354;82;21219;-76
2021/12/21 03:15:52;;;;;;;9.97;3.37;;;;;;;-0.15;80.07;101462.03;1736284;82;21464;-75
2021/12/21 03:18:24;;;;;;;6.03;3.23;;;;;;;-0.12;80.24;101458.23;1668723;86;21536;-76
2021/12/21 03:20:56;;;;;;;8.97;3.27;;;;;;;-0.12;80.18;101459.10;1669109;86;21042;-76
2021/12/21 03:23:23;;;;;;;8.53;3.40;;;;;;;-0.08;80.34;101457.49;1653991;86;21087;-75
2021/12/21 03:25:50;;;;;;;7.90;3.20;;;;;;;-0.08;80.38;101454.91;1668634;86;21106;-77
2021/12/21 03:28:17;;;;;;;8.47;3.37;;;;;;;-0.08;80.21;101457.07;1679995;83;21057;-76
2021/12/21 03:30:44;;;;;;;8.30;3.47;;;;;;;-0.11;80.21;101449.66;1688110;85;21037;-75
2021/12/21 03:33:11;;;;;;;6.93;3.40;;;;;;;-0.08;80.23;101451.91;1686305;85;21075;-75
2021/12/21 03:35:38;;;;;;;9.33;3.93;;;;;;;-0.05;80.50;101452.41;1702004;84;21416;-76
2021/12/21 03:38:05;;;;;;;6.03;3.20;;;;;;;0.00;80.40;101453.39;1702338;84;20999;-76
2021/12/21 03:40:33;;;;;;;7.07;3.30;;;;;;;-0.06;80.11;101460.95;1702035;84;21035;-77
2021/12/21 03:43:01;;;;;;;6.37;2.87;;;;;;;-0.08;80.26;101457.07;1702040;84;21046;-77
2021/12/21 03:45:32;;;;;;;11.73;3.83;;;;;;;-0.02;80.59;101460.20;1702349;84;21104;-75
2021/12/21 03:47:58;;;;;;;7.60;3.47;;;;;;;0.03;80.48;101456.03;1701896;84;21142;-77
2021/12/21 03:50:25;;;;;;;8.30;4.20;;;;;;;0.04;80.60;101458.19;1702222;84;21536;-78
2021/12/21 03:52:52;;;;;;;8.03;3.43;;;;;;;0.08;80.53;101458.69;1702067;84;22127;-76
2021/12/21 03:55:20;;;;;;;10.17;4.00;;;;;;;0.07;80.39;101455.67;1720738;80;21075;-78
2021/12/21 03:57:47;;;;;;;7.57;3.40;;;;;;;0.02;79.97;101459.84;1778121;80;21020;-79
2021/12/21 04:00:16;;;;;;;12.00;4.07;;;;;;;-0.02;80.02;101459.78;1778394;80;21163;-75
2021/12/21 04:02:43;;;;;;;7.57;3.50;;;;;;;-0.01;80.04;101460.22;1777968;80;21466;-76
2021/12/21 04:05:10;;;;;;;6.50;3.30;;;;;;;-0.03;79.98;101468.75;1758168;81;21027;-76
2021/12/21 04:07:38;;;;;;;7.37;2.97;;;;;;;-0.03;79.86;101475.20;1758000;81;20993;-76
2021/12/21 04:10:07;;;;;;;7.53;3.20;;;;;;;-0.04;80.01;101478.62;1778176;80;21012;-74
2021/12/21 04:12:36;;;;;;;6.00;2.60;;;;;;;0.02;79.94;101483.91;1778428;80;21246;-76
2021/12/21 04:15:06;;;;;;;8.07;3.53;;;;;;;0.01;79.98;101477.45;1777905;80;20981;-76
2021/12/21 04:17:34;;;;;;;7.30;2.95;;;;;;;0.03;79.72;101480.52;1758267;81;20984;-76
2021/12/21 04:20:01;;;;;;;8.10;3.80;;;;;;;0.00;79.62;101477.87;1778016;80;21517;-75
2021/12/21 04:22:28;;;;;;;6.53;2.97;;;;;;;0.00;79.65;101479.16;1778075;80;21017;-77
2021/12/21 04:24:55;;;;;;;6.77;3.13;;;;;;;0.01;79.74;101474.88;1777998;80;21286;-75
2021/12/21 04:27:22;;;;;;;6.97;3.00;;;;;;;0.03;79.63;101480.52;1778508;80;21005;-78
2021/12/21 04:29:49;;;;;;;8.27;3.50;;;;;;;0.04;79.70;101468.50;1785557;80;21000;-76
2021/12/21 04:32:16;;;;;;;7.60;3.80;;;;;;;0.05;79.70;101467.23;1785573;80;21577;-76
2021/12/21 04:34:43;;;;;;;6.67;3.33;;;;;;;0.03;79.62;101477.94;1785644;80;21482;-76
2021/12/21 04:37:15;;;;;;;9.60;3.47;;;;;;;0.00;79.37;101481.73;1785550;80;21879;-75
2021/12/21 04:39:52;;;;;;;7.35;3.37;;;;;;;-0.03;79.49;101473.91;1785703;80;21000;-75
2021/12/21 04:42:12;;;;;;;7.03;3.60;;;;;;;-0.04;79.43;101476.05;1783284;80;21605;-76
2021/12/21 04:44:40;;;;;;;10.40;4.23;;;;;;;-0.01;79.61;101472.25;1785812;80;21012;-76
2021/12/21 04:47:07;;;;;;;10.90;4.43;;;;;;;-0.04;79.42;101467.89;1785860;80;20969;-75
2021/12/21 04:49:34;;;;;;;9.53;4.53;;;;;;;-0.05;79.57;101466.58;1785689;80;21928;-75
2021/12/21 04:52:02;;;;;;;9.03;3.97;;;;;;;-0.09;79.54;101472.05;1785836;80;20972;-75
2021/12/21 04:54:29;;;;;;;9.83;4.60;;;;;;;-0.12;79.74;101466.84;1785707;80;21444;-77
2021/12/21 04:56:56;;;;;;;10.87;4.13;;;;;;;-0.14;79.59;101474.97;1785865;80;21012;-75
2021/12/21 04:59:23;;;;;;;7.80;3.90;;;;;;;-0.19;79.64;101479.14;1785559;80;21281;-75
2021/12/21 05:01:52;;;;;;;9.70;4.20;;;;;;;-0.21;79.65;101474.78;1785919;80;21187;-75
2021/12/21 05:04:19;;;;;;;7.80;4.00;;;;;;;-0.25;79.84;101471.23;1785698;80;21012;-75
2021/12/21 05:06:46;;;;;;;8.97;4.20;;;;;;;-0.29;79.79;101476.73;1786124;80;21056;-75
2021/12/21 05:09:23;;;;;;;11.97;3.73;;;;;;;-0.31;80.06;101478.40;1785683;80;21000;-77
2021/12/21 05:11:44;;;;;;;8.13;4.30;;;;;;;-0.33;80.00;101481.80;1784294;80;21000;-75
2021/12/21 05:14:11;;;;;;;9.10;4.27;;;;;;;-0.36;80.32;101487.74;1785771;80;21133;-76
2021/12/21 05:16:38;;;;;;;26.00;10.87;;;;;;;-0.34;80.43;101498.94;1786097;80;20936;-76
2021/12/21 05:19:06;;;;;;;18.83;7.50;;;;;;;-0.31;80.64;101495.56;1785649;80;20973;-76
2021/12/21 05:21:34;;;;;;;12.80;5.17;;;;;;;-0.31;80.52;101499.01;1769088;80;20984;-76
2021/12/21 05:24:01;;;;;;;10.07;4.27;;;;;;;-0.31;80.57;101496.85;1731191;82;21035;-75
2021/12/21 05:26:28;;;;;;;10.73;4.27;;;;;;;-0.29;80.67;101497.34;1772949;80;21783;-75
2021/12/21 05:28:56;;;;;;;9.23;4.07;;;;;;;-0.29;80.70;101496.06;1772474;80;20989;-76
2021/12/21 05:31:23;;;;;;;8.73;4.00;;;;;;;-0.27;80.62;101495.69;1773822;80;21443;-77
2021/12/21 05:33:52;;;;;;;20.20;7.73;;;;;;;-0.28;80.87;101498.21;1750588;82;21012;-77
2021/12/21 05:36:20;;;;;;;32.10;12.57;;;;;;;-0.24;80.96;101502.20;1753742;81;21036;-76
2021/12/21 05:38:53;;;;;;;9.57;4.43;;;;;;;-0.25;80.98;101507.30;1751868;81;21942;-76
2021/12/21 05:41:47;;;;;;;8.10;3.53;;;;;;;-0.25;80.68;101497.00;1734376;82;21023;-78
2021/12/21 05:43:47;;;;;;;9.27;4.53;;;;;;;-0.27;80.95;101498.27;1723300;82;20995;-76
2021/12/21 05:46:14;;;;;;;6.07;3.00;;;;;;;-0.26;80.76;101503.00;1734746;82;21027;-76
2021/12/21 05:48:41;;;;;;;7.33;3.83;;;;;;;-0.29;80.94;101492.20;1734764;82;21473;-75
2021/12/21 05:51:08;;;;;;;8.87;3.57;;;;;;;-0.27;80.85;101497.41;1755409;81;21109;-75
2021/12/21 05:53:35;;;;;;;23.00;9.10;;;;;;;-0.29;80.96;101502.92;1782564;80;21015;-76
2021/12/21 05:56:03;;;;;;;12.47;5.13;;;;;;;-0.27;80.99;101499.98;1750266;82;21491;-76
2021/12/21 05:58:29;;;;;;;9.30;3.73;;;;;;;-0.29;81.11;101497.77;1755106;81;21044;-76
2021/12/21 06:00:57;;;;;;;7.50;3.80;;;;;;;-0.26;81.10;101501.28;1783053;80;21494;-75
2021/12/21 06:03:23;;;;;;;8.37;4.23;;;;;;;-0.29;81.15;101501.21;1750119;82;21136;-75
2021/12/21 06:05:50;;;;;;;8.07;3.83;;;;;;;-0.25;81.22;101503.05;1755315;81;21000;-75
2021/12/21 06:08:20;;;;;;;7.97;3.77;;;;;;;-0.18;81.17;101503.19;1778507;80;21490;-76
2021/12/21 06:10:47;;;;;;;12.37;4.80;;;;;;;-0.20;81.20;101498.41;1767497;80;21005;-77
2021/12/21 06:13:39;;;;;;;20.07;8.97;;;;;;;-0.22;81.41;101503.55;1745340;82;21044;-75
2021/12/21 06:26:14;;;;;;;8.03;3.63;;;;;;;-0.17;81.52;101517.39;1752180;81;20989;-75
2021/12/21 06:28:44;;;;;;;10.28;4.33;;;;;;;-0.18;81.64;101512.21;1748159;81;21513;-76
2021/12/21 06:31:12;;;;;;;9.30;4.50;;;;;;;-0.17;81.59;101507.08;1753927;81;21414;-75
2021/12/21 06:33:39;;;;;;;44.67;14.67;;;;;;;-0.20;81.38;101509.58;1725940;81;21496;-76
2021/12/21 06:36:08;;;;;;;22.90;7.77;;;;;;;-0.20;81.63;101512.16;1754052;81;21055;-76
2021/12/21 06:38:37;;;;;;;20.73;7.90;;;;;;;-0.19;81.89;101511.73;1754137;81;21028;-77
2021/12/21 06:41:04;;;;;;;9.10;4.33;;;;;;;-0.20;81.81;101515.16;1754247;81;21246;-75
2021/12/21 06:43:32;;;;;;;7.73;3.87;;;;;;;-0.19;81.80;101522.05;1754151;81;21048;-76
2021/12/21 06:46:12;;;;;;;8.00;4.10;;;;;;;-0.21;81.53;101520.73;1754342;81;21021;-75
2021/12/21 06:51:25;;;;;;;23.30;10.07;;;;;;;-0.24;81.66;101528.39;1754060;81;21032;-76
2021/12/21 06:53:52;;;;;;;28.33;11.07;;;;;;;-0.22;82.20;101529.31;1739564;81;21980;-77
2021/12/21 06:56:21;;;;;;;16.47;8.20;;;;;;;-0.16;82.12;101532.03;1744490;81;21501;-76
2021/12/21 06:58:49;;;;;;;21.63;9.10;;;;;;;-0.11;82.35;101540.76;1730522;82;21278;-75
2021/12/21 07:01:17;;;;;;;69.50;25.63;;;;;;;-0.08;82.17;101534.38;1730988;82;21079;-76
2021/12/21 07:03:45;;;;;;;83.37;29.10;;;;;;;-0.07;82.20;101533.53;1718777;83;21008;-76
2021/12/21 07:06:12;;;;;;;26.00;10.97;;;;;;;-0.02;82.33;101537.53;1730905;82;21898;-75
2021/12/21 07:08:46;;;;;;;44.37;15.83;;;;;;;0.00;82.02;101532.00;1734637;81;20984;-75
2021/12/21 07:11:30;;;;;;;12.50;5.27;;;;;;;-0.01;81.77;101534.97;1756089;81;21004;-75
2021/12/21 07:19:21;;;;;;;6.87;2.00;;;;;;;-0.01;81.40;101540.55;1752351;81;21146;-75
2021/12/21 07:21:47;;;;;;;9.10;2.93;;;;;;;0.00;81.50;101543.59;1733836;82;20996;-74
2021/12/21 07:24:14;;;;;;;6.80;2.87;;;;;;;0.04;81.46;101540.67;1733734;82;21050;-74
2021/12/21 07:26:41;;;;;;;6.90;3.13;;;;;;;0.08;81.60;101542.47;1733960;82;21011;-77
2021/12/21 07:29:08;;;;;;;8.93;3.10;;;;;;;0.06;81.27;101543.74;1731172;82;21042;-75
2021/12/21 07:31:36;;;;;;;6.00;3.03;;;;;;;0.06;81.26;101538.59;1727349;83;21121;-75
2021/12/21 07:34:04;;;;;;;6.90;3.27;;;;;;;0.04;81.21;101540.67;1741775;82;21520;-75
2021/12/21 07:36:32;;;;;;;7.03;4.07;;;;;;;0.04;81.30;101538.09;1742153;82;21460;-74
2021/12/21 07:39:00;;;;;;;8.13;3.40;;;;;;;0.05;81.49;101545.84;1729019;83;21007;-76
2021/12/21 07:41:27;;;;;;;6.67;3.40;;;;;;;0.07;81.28;101536.45;1742317;82;21035;-75
2021/12/21 07:43:55;;;;;;;6.07;4.03;;;;;;;0.05;81.23;101538.53;1729016;83;21116;-73
2021/12/21 07:46:22;;;;;;;16.23;9.97;;;;;;;0.02;81.16;101539.75;1742401;82;21015;-72
2021/12/21 07:48:49;;;;;;;40.87;18.23;;;;;;;-0.02;80.85;101539.68;1729031;83;21046;-74
2021/12/21 07:51:16;;;;;;;15.50;7.50;;;;;;;-0.08;80.81;101544.69;1742449;82;21035;-72
2021/12/21 07:53:44;;;;;;;25.63;10.57;;;;;;;-0.09;80.91;101544.64;1729116;83;20992;-73
2021/12/21 07:56:11;;;;;;;14.00;6.03;;;;;;;-0.11;81.10;101544.63;1742366;82;21109;-73
2021/12/21 07:58:39;;;;;;;7.47;3.10;;;;;;;-0.10;81.13;101545.48;1729004;83;21020;-72
2021/12/21 08:01:06;;;;;;;5.40;2.97;;;;;;;-0.13;80.99;101551.44;1742468;82;20991;-73
2021/12/21 08:03:34;;;;;;;6.70;3.10;;;;;;;-0.17;81.17;101544.86;1729149;83;20995;-75
2021/12/21 08:06:04;;;;;;;4.80;2.33;;;;;;;-0.20;81.10;101552.52;1711270;83;21078;-74
2021/12/21 08:08:32;;;;;;;5.87;2.75;;;;;;;-0.25;81.07;101548.53;1729085;83;21519;-75
2021/12/21 08:11:13;;;;;;;7.60;3.30;;;;;;;-0.32;81.00;101551.38;1734946;81;21136;-74
2021/12/21 08:13:40;;;;;;;13.00;4.20;;;;;;;-0.39;80.96;101550.75;1738996;81;21541;-73
2021/12/21 08:16:08;;;;;;;6.37;3.37;;;;;;;-0.48;81.23;101551.38;1737069;82;21552;-75
2021/12/21 08:18:35;;;;;;;5.43;2.40;;;;;;;-0.51;81.27;101547.86;1759654;81;21075;-73
2021/12/21 08:21:03;;;;;;;6.43;2.60;;;;;;;-0.57;81.17;101549.86;1754658;81;21124;-79
2021/12/21 08:23:30;;;;;;;10.83;4.43;;;;;;;-0.64;81.08;101545.78;1729342;83;21016;-77
2021/12/21 08:25:57;;;;;;;9.47;4.13;;;;;;;-0.66;81.19;101546.19;1756493;81;21001;-75
2021/12/21 08:28:25;;;;;;;6.53;3.30;;;;;;;-0.72;81.29;101543.89;1746727;81;21035;-74
2021/12/21 08:30:52;;;;;;;10.70;4.77;;;;;;;-0.73;81.14;101541.27;1748918;82;21478;-79
2021/12/21 08:33:19;;;;;;;8.87;4.30;;;;;;;-0.74;81.32;101540.39;1752667;81;21134;-76
2021/12/21 08:35:46;;;;;;;12.23;4.63;;;;;;;-0.77;81.20;101546.75;1743577;82;21051;-75
2021/12/21 08:38:18;;;;;;;10.17;4.53;;;;;;;-0.77;81.34;101544.17;1782092;80;21005;-75
2021/12/21 08:40:48;;;;;;;7.67;4.07;;;;;;;-0.78;81.43;101552.70;1781635;80;21044;-79
2021/12/21 08:43:16;;;;;;;;;;;;;;;-0.76;81.40;101551.48;1784622;80;20980;-76
2021/12/21 08:45:46;;;;;;;11.03;4.50;;;;;;;-0.76;81.37;101551.48;1780659;80;21118;-73
2021/12/21 08:48:23;;;;;;;22.80;9.58;;;;;;;-0.75;81.42;101556.69;1782254;80;20977;-79
2021/12/21 08:50:54;;;;;;;14.33;5.63;;;;;;;-0.75;81.55;101555.39;1781535;80;20996;-77
2021/12/21 08:53:22;;;;;;;12.80;5.45;;;;;;;-0.69;81.76;101554.70;1782346;80;21012;-75
2021/12/21 08:55:52;;;;;;;19.57;7.30;;;;;;;-0.62;81.79;101556.59;1758683;80;21086;-73
2021/12/21 08:58:20;;;;;;;18.03;7.13;;;;;;;-0.55;82.07;101556.36;1774648;80;21924;-72
2021/12/21 09:00:48;;;;;;;20.40;7.77;;;;;;;-0.49;82.02;101559.09;1755034;81;21055;-73
2021/12/21 09:03:15;;;;;;;13.60;5.73;;;;;;;-0.43;82.07;101553.23;1755052;81;21443;-72
2021/12/21 09:05:42;;;;;;;54.47;19.80;;;;;;;-0.36;82.14;101556.01;1749950;82;21032;-73
2021/12/21 09:08:10;;;;;;;20.40;7.60;;;;;;;-0.32;81.92;101560.39;1755091;81;21052;-73
2021/12/21 09:10:39;;;;;;;9.90;4.93;;;;;;;-0.29;81.82;101557.03;1782653;80;21204;-74
2021/12/21 09:13:09;;;;;;;11.00;4.67;;;;;;;-0.26;81.93;101558.39;1782467;80;21554;-73
2021/12/21 09:15:37;;;;;;;8.05;3.62;;;;;;;-0.21;81.84;101563.67;1782714;80;21016;-72
2021/12/21 09:18:06;;;;;;;8.87;3.93;;;;;;;-0.22;81.72;101560.23;1782549;80;21000;-72
2021/12/21 09:20:35;;;;;;;12.87;5.60;;;;;;;-0.20;81.59;101556.39;1782574;80;21000;-73
2021/12/21 09:23:03;;;;;;;43.00;18.47;;;;;;;-0.20;81.89;101565.41;1782537;80;21115;-73
2021/12/21 09:25:31;;;;;;;14.73;7.23;;;;;;;-0.11;81.97;101556.22;1782426;80;20909;-73
2021/12/21 09:27:58;;;;;;;7.33;4.43;;;;;;;-0.08;81.89;101558.87;1782509;80;20985;-73
2021/12/21 09:30:28;;;;;;;9.23;4.67;;;;;;;-0.05;81.87;101555.08;1782511;80;21054;-73
2021/12/21 09:32:55;;;;;;;6.62;3.60;;;;;;;0.01;81.92;101559.93;1782987;80;21008;-73
2021/12/21 09:35:24;;;;;;;6.27;3.03;;;;;;;0.02;81.65;101560.38;1782494;80;22042;-73
2021/12/21 09:37:51;;;;;;;6.67;3.10;;;;;;;0.01;81.41;101560.80;1782786;80;21000;-73
2021/12/21 09:40:24;;;;;;;13.07;5.33;;;;;;;-0.03;81.31;101557.67;1782546;80;21024;-73
2021/12/21 09:42:51;;;;;;;7.97;3.60;;;;;;;-0.04;81.47;101556.80;1782940;80;20996;-73
2021/12/21 09:45:19;;;;;;;8.73;4.07;;;;;;;-0.03;81.45;101561.54;1782433;80;21537;-73
2021/12/21 09:47:49;;;;;;;10.67;4.17;;;;;;;-0.07;81.45;101555.45;1782887;80;21889;-73
2021/12/21 09:50:19;;;;;;;10.57;4.13;;;;;;;-0.07;81.42;101558.45;1782552;80;20993;-72
2021/12/21 09:52:46;;;;;;;8.68;4.03;;;;;;;-0.05;81.56;101556.78;1782851;80;21000;-72
2021/12/21 09:55:16;;;;;;;7.03;3.47;;;;;;;-0.05;81.54;101564.09;1782569;80;20985;-73
2021/12/21 09:57:43;;;;;;;9.67;4.20;;;;;;;-0.08;81.45;101564.45;1782795;80;21460;-73
2021/12/21 10:00:21;;;;;;;9.97;4.27;;;;;;;-0.13;81.44;101562.16;1782540;80;21124;-72
2021/12/21 10:02:48;;;;;;;6.20;3.73;;;;;;;-0.14;81.56;101560.40;1782835;80;21047;-72
2021/12/21 10:05:21;;;;;;;6.73;3.93;;;;;;;-0.14;81.66;101564.27;1782493;80;20977;-73
2021/12/21 10:07:58;;;;;;;8.87;3.73;;;;;;;-0.18;81.66;101559.88;1782600;80;21012;-78
2021/12/21 10:10:25;;;;;;;7.03;3.67;;;;;;;-0.18;81.76;101562.45;1782491;80;21012;-72
2021/12/21 10:12:53;;;;;;;7.87;3.70;;;;;;;-0.16;81.83;101570.69;1757261;80;21888;-72
2021/12/21 10:15:24;;;;;;;6.73;4.10;;;;;;;-0.13;81.94;101569.47;1754239;80;21550;-73
2021/12/21 10:18:00;;;;;;;8.40;3.90;;;;;;;-0.08;82.14;101563.16;1725056;83;21025;-73
2021/12/21 10:20:45;;;;;;;8.63;4.03;;;;;;;-0.03;82.03;101565.41;1725068;83;21014;-73
2021/12/21 10:23:23;;;;;;;8.97;4.23;;;;;;;0.01;81.94;101564.66;1751594;81;21028;-74
2021/12/21 10:26:08;;;;;;;7.40;3.80;;;;;;;0.06;82.07;101554.05;1759242;80;21127;-79
2021/12/21 10:28:52;;;;;;;14.13;6.10;;;;;;;0.15;82.25;101549.53;1779731;80;21020;-72
2021/12/21 10:31:27;;;;;;;9.17;4.57;;;;;;;0.22;82.37;101550.11;1761343;80;21031;-78
2021/12/21 10:33:57;;;;;;;10.30;4.63;;;;;;;0.31;82.22;101560.67;1754268;81;20987;-72
2021/12/21 10:36:28;;;;;;;11.30;4.95;;;;;;;0.34;81.93;101562.45;1775533;80;21020;-74
2021/12/21 10:39:01;;;;;;;9.80;5.03;;;;;;;0.33;81.77;101557.68;1742649;81;21219;-74
2021/12/21 10:41:39;;;;;;;9.20;4.57;;;;;;;0.37;82.12;101553.48;1740200;81;21505;-76
2021/12/21 10:44:13;;;;;;;9.77;4.60;;;;;;;0.47;82.41;101564.88;1780798;80;20992;-80
2021/12/21 10:46:45;;;;;;;6.23;2.97;;;;;;;0.52;81.92;101559.41;1780154;80;21051;-78
2021/12/21 10:49:23;;;;;;;4.70;2.00;;;;;;;0.50;81.46;101560.67;1783884;80;21036;-72
2021/12/21 10:52:04;;;;;;;4.33;2.00;;;;;;;0.46;81.35;101547.23;1774896;80;21114;-75
2021/12/21 10:54:37;;;;;;;6.73;2.80;;;;;;;0.49;81.48;101542.15;1784930;80;21063;-81
2021/12/21 10:57:10;;;;;;;5.03;2.27;;;;;;;0.50;81.37;101545.59;1783900;80;21051;-79
2021/12/21 10:59:40;;;;;;;7.23;2.83;;;;;;;0.52;81.40;101537.48;1785488;80;21004;-79
2021/12/21 11:02:21;;;;;;;6.70;3.02;;;;;;;0.51;81.39;101540.48;1785616;80;20985;-78
2021/12/21 11:04:54;;;;;;;9.13;3.67;;;;;;;0.57;81.62;101544.91;1785342;80;21111;-73
2021/12/21 11:10:15;;;;;;;6.73;2.70;;;;;;;0.54;81.34;101543.55;1746176;81;21044;-75
2021/12/21 11:12:52;;;;;;;7.15;3.08;;;;;;;0.56;81.44;101547.05;1744760;81;21040;-77
2021/12/21 11:15:29;;;;;;;6.27;3.27;;;;;;;0.60;81.34;101548.84;1746635;81;21530;-73
2021/12/21 11:18:14;;;;;;;7.33;3.07;;;;;;;0.61;81.44;101545.02;1754508;81;21076;-73
2021/12/21 11:20:43;;;;;;;7.70;2.90;;;;;;;0.64;81.40;101546.38;1785105;80;20996;-76
2021/12/21 11:23:15;;;;;;;7.50;2.70;;;;;;;0.62;81.50;101542.88;1785447;80;21004;-73
2021/12/21 11:25:46;;;;;;;7.73;3.20;;;;;;;0.67;81.59;101536.54;1784342;80;21016;-76
2021/12/21 11:28:27;;;;;;;12.80;5.60;;;;;;;0.71;81.59;101539.63;1776290;80;21284;-77
2021/12/21 11:31:00;;;;;;;11.20;6.13;;;;;;;0.76;81.74;101542.31;1747382;81;21221;-74
2021/12/21 11:33:34;;;;;;;7.50;3.93;;;;;;;0.77;81.60;101533.30;1752980;81;21499;-73
2021/12/21 11:38:45;;;;;;;9.00;3.90;;;;;;;0.74;81.22;101531.94;1709533;83;21033;-74
2021/12/21 11:41:12;;;;;;;9.77;4.50;;;;;;;0.73;81.55;101531.50;1723202;83;21147;-75
2021/12/21 11:43:46;;;;;;;7.73;3.43;;;;;;;0.76;81.45;101532.86;1723349;83;21114;-75
2021/12/21 11:46:19;;;;;;;4.67;2.20;;;;;;;0.77;81.33;101525.98;1722522;82;20989;-74
2021/12/21 11:49:12;;;;;;;6.43;3.17;;;;;;;0.72;80.97;101528.87;1729387;81;20974;-75
2021/12/21 11:51:39;;;;;;;5.83;2.90;;;;;;;0.70;81.07;101529.28;1735305;81;20948;-73
2021/12/21 11:54:17;;;;;;;9.87;3.13;;;;;;;0.65;80.98;101531.75;1727024;81;20982;-73
2021/12/21 11:56:45;;;;;;;6.80;3.23;;;;;;;0.57;81.09;101526.42;1750258;81;21124;-72
2021/12/21 11:59:14;;;;;;;6.70;3.33;;;;;;;0.56;81.17;101527.70;1753205;81;21006;-72
2021/12/21 12:01:46;;;;;;;7.40;4.03;;;;;;;0.55;81.28;101525.94;1751918;81;21055;-73
2021/12/21 12:04:15;;;;;;;15.63;8.23;;;;;;;0.53;81.31;101527.63;1753537;81;21043;-77
2021/12/21 12:06:52;;;;;;;9.53;3.83;;;;;;;0.53;81.39;101523.77;1753089;81;21044;-75
2021/12/21 12:09:31;;;;;;;7.93;3.87;;;;;;;0.55;81.64;101524.22;1751046;81;21339;-73
2021/12/21 12:12:15;;;;;;;11.43;6.13;;;;;;;0.56;81.72;101518.67;1751379;81;21004;-74
2021/12/21 12:14:45;;;;;;;10.97;4.93;;;;;;;0.51;81.56;101521.56;1723073;83;21008;-74
2021/12/21 12:17:22;;;;;;;9.63;4.20;;;;;;;0.49;81.75;101522.80;1723536;83;26811;-73
2021/12/21 12:20:02;;;;;;;9.57;5.17;;;;;;;0.54;81.83;101519.05;1723301;83;21001;-73
2021/12/21 12:22:40;;;;;;;8.97;4.97;;;;;;;0.56;81.74;101519.95;1722783;83;21150;-74
2021/12/21 12:25:21;;;;;;;10.35;4.97;;;;;;;0.56;81.74;101518.24;1754479;81;20968;-73
2021/12/21 12:27:51;;;;;;;;;;;;;;;0.57;81.74;101523.84;1723862;83;21286;-73
2021/12/21 12:30:26;;;;;;;18.57;9.43;;;;;;;0.59;81.68;101522.17;1724957;83;20449;-78